sensor_id;sensor_type;location;lat;lon;timestamp;P1;durP1;ratioP1;P2;durP2;ratioP2
5674;SDS011;2860;54.284;10.158;2023-05-10T00:01:33;5.60;;;4.10;;
5674;SDS011;2860;54.284;10.158;2023-05-10T00:03:59;4.20;;;4.05;;
5674;SDS011;2860;54.284;10.158;2023-05-10T00:06:24;5.90;;;3.33;;
5674;SDS011;2860;54.284;10.158;2023-05-10T00:08:50;3.83;;;3.25;;
5674;SDS011;2860;54.284;10.158;2023-05-10T00:11:15;3.90;;;3.67;;
5674;SDS011;2860;54.284;10.158;2023-05-10T00:13:41;3.88;;;3.58;;
5674;SDS011;2860;54.284;10.158;2023-05-10T00:16:06;4.85;;;3.95;;
5674;SDS011;2860;54.284;10.158;2023-05-10T00:18:32;4.13;;;3.50;;
5674;SDS011;2860;54.284;10.158;2023-05-10T00:20:57;4.50;;;4.28;;
5674;SDS011;2860;54.284;10.158;2023-05-10T00:23:23;4.10;;;3.83;;
5674;SDS011;2860;54.284;10.158;2023-05-10T00:25:48;4.95;;;3.67;;
5674;SDS011;2860;54.284;10.158;2023-05-10T00:28:14;4.97;;;4.22;;
5674;SDS011;2860;54.284;10.158;2023-05-10T00:30:39;11.23;;;4.68;;
5674;SDS011;2860;54.284;10.158;2023-05-10T00:33:05;9.77;;;3.88;;
5674;SDS011;2860;54.284;10.158;2023-05-10T00:35:30;9.50;;;4.30;;
5674;SDS011;2860;54.284;10.158;2023-05-10T00:37:56;3.75;;;3.55;;
5674;SDS011;2860;54.284;10.158;2023-05-10T00:40:21;4.45;;;4.15;;
5674;SDS011;2860;54.284;10.158;2023-05-10T00:42:47;4.25;;;4.05;;
5674;SDS011;2860;54.284;10.158;2023-05-10T00:45:13;4.05;;;3.65;;
5674;SDS011;2860;54.284;10.158;2023-05-10T00:47:38;4.53;;;4.00;;
5674;SDS011;2860;54.284;10.158;2023-05-10T00:50:04;4.18;;;3.88;;
5674;SDS011;2860;54.284;10.158;2023-05-10T00:52:31;4.20;;;4.00;;
5674;SDS011;2860;54.284;10.158;2023-05-10T00:54:57;3.95;;;3.85;;
5674;SDS011;2860;54.284;10.158;2023-05-10T00:57:23;4.35;;;4.15;;
5674;SDS011;2860;54.284;10.158;2023-05-10T00:59:49;5.10;;;4.60;;
5674;SDS011;2860;54.284;10.158;2023-05-10T01:02:15;4.70;;;4.05;;
5674;SDS011;2860;54.284;10.158;2023-05-10T01:04:41;8.55;;;4.40;;
5674;SDS011;2860;54.284;10.158;2023-05-10T01:07:08;3.60;;;3.33;;
5674;SDS011;2860;54.284;10.158;2023-05-10T01:09:34;4.78;;;4.38;;
5674;SDS011;2860;54.284;10.158;2023-05-10T01:11:59;4.45;;;4.10;;
5674;SDS011;2860;54.284;10.158;2023-05-10T01:14:26;8.95;;;3.85;;
5674;SDS011;2860;54.284;10.158;2023-05-10T01:16:52;10.43;;;4.55;;
5674;SDS011;2860;54.284;10.158;2023-05-10T01:19:28;4.55;;;4.18;;
5674;SDS011;2860;54.284;10.158;2023-05-10T01:24:40;10.80;;;6.68;;
5674;SDS011;2860;54.284;10.158;2023-05-10T01:27:34;3.95;;;3.88;;
5674;SDS011;2860;54.284;10.158;2023-05-10T01:33:35;4.25;;;4.03;;
5674;SDS011;2860;54.284;10.158;2023-05-10T01:38:57;4.30;;;4.03;;
5674;SDS011;2860;54.284;10.158;2023-05-10T01:41:36;4.72;;;4.35;;
5674;SDS011;2860;54.284;10.158;2023-05-10T01:44:12;4.72;;;4.28;;
5674;SDS011;2860;54.284;10.158;2023-05-10T01:46:39;4.95;;;4.57;;
5674;SDS011;2860;54.284;10.158;2023-05-10T01:49:15;4.95;;;4.55;;
5674;SDS011;2860;54.284;10.158;2023-05-10T01:51:53;4.50;;;4.40;;
5674;SDS011;2860;54.284;10.158;2023-05-10T01:54:22;4.18;;;3.92;;
5674;SDS011;2860;54.284;10.158;2023-05-10T01:56:50;4.10;;;3.90;;
5674;SDS011;2860;54.284;10.158;2023-05-10T01:59:20;4.35;;;4.18;;
5674;SDS011;2860;54.284;10.158;2023-05-10T02:01:51;4.70;;;4.40;;
5674;SDS011;2860;54.284;10.158;2023-05-10T02:04:18;4.57;;;4.38;;
5674;SDS011;2860;54.284;10.158;2023-05-10T02:06:46;6.38;;;4.40;;
5674;SDS011;2860;54.284;10.158;2023-05-10T02:09:13;6.18;;;4.70;;
5674;SDS011;2860;54.284;10.158;2023-05-10T02:11:39;4.78;;;4.35;;
5674;SDS011;2860;54.284;10.158;2023-05-10T02:14:07;7.22;;;4.45;;
5674;SDS011;2860;54.284;10.158;2023-05-10T02:16:35;6.43;;;4.55;;
5674;SDS011;2860;54.284;10.158;2023-05-10T02:19:02;4.57;;;4.18;;
5674;SDS011;2860;54.284;10.158;2023-05-10T02:21:29;4.68;;;4.40;;
5674;SDS011;2860;54.284;10.158;2023-05-10T02:23:56;5.30;;;4.63;;
5674;SDS011;2860;54.284;10.158;2023-05-10T02:26:23;4.40;;;4.20;;
5674;SDS011;2860;54.284;10.158;2023-05-10T02:28:50;7.53;;;4.20;;
5674;SDS011;2860;54.284;10.158;2023-05-10T02:31:16;4.85;;;4.75;;
5674;SDS011;2860;54.284;10.158;2023-05-10T02:33:43;5.30;;;4.90;;
5674;SDS011;2860;54.284;10.158;2023-05-10T02:36:11;4.85;;;4.53;;
5674;SDS011;2860;54.284;10.158;2023-05-10T02:38:38;5.25;;;4.85;;
5674;SDS011;2860;54.284;10.158;2023-05-10T02:41:05;5.60;;;5.13;;
5674;SDS011;2860;54.284;10.158;2023-05-10T02:43:32;4.88;;;4.75;;
5674;SDS011;2860;54.284;10.158;2023-05-10T02:45:58;5.55;;;5.05;;
5674;SDS011;2860;54.284;10.158;2023-05-10T02:48:24;4.25;;;4.05;;
5674;SDS011;2860;54.284;10.158;2023-05-10T02:50:50;5.07;;;4.68;;
5674;SDS011;2860;54.284;10.158;2023-05-10T02:53:18;4.72;;;4.53;;
5674;SDS011;2860;54.284;10.158;2023-05-10T02:55:49;5.40;;;5.10;;
5674;SDS011;2860;54.284;10.158;2023-05-10T02:58:17;4.07;;;3.65;;
5674;SDS011;2860;54.284;10.158;2023-05-10T03:00:46;5.60;;;5.13;;
5674;SDS011;2860;54.284;10.158;2023-05-10T03:03:11;5.68;;;5.13;;
5674;SDS011;2860;54.284;10.158;2023-05-10T03:05:37;5.43;;;5.13;;
5674;SDS011;2860;54.284;10.158;2023-05-10T03:08:02;5.55;;;4.93;;
5674;SDS011;2860;54.284;10.158;2023-05-10T03:10:29;5.22;;;4.85;;
5674;SDS011;2860;54.284;10.158;2023-05-10T03:13:29;6.72;;;5.00;;
5674;SDS011;2860;54.284;10.158;2023-05-10T03:18:55;5.38;;;4.68;;
5674;SDS011;2860;54.284;10.158;2023-05-10T03:21:26;4.63;;;4.53;;
5674;SDS011;2860;54.284;10.158;2023-05-10T03:23:58;5.82;;;5.40;;
5674;SDS011;2860;54.284;10.158;2023-05-10T03:26:27;5.25;;;4.88;;
5674;SDS011;2860;54.284;10.158;2023-05-10T03:28:53;4.90;;;4.50;;
5674;SDS011;2860;54.284;10.158;2023-05-10T03:31:19;14.55;;;5.82;;
5674;SDS011;2860;54.284;10.158;2023-05-10T03:33:46;5.82;;;4.90;;
5674;SDS011;2860;54.284;10.158;2023-05-10T03:36:15;5.15;;;4.95;;
5674;SDS011;2860;54.284;10.158;2023-05-10T03:38:41;6.78;;;4.60;;
5674;SDS011;2860;54.284;10.158;2023-05-10T03:41:06;5.97;;;4.95;;
5674;SDS011;2860;54.284;10.158;2023-05-10T03:43:32;5.50;;;5.30;;
5674;SDS011;2860;54.284;10.158;2023-05-10T03:45:57;6.30;;;5.18;;
5674;SDS011;2860;54.284;10.158;2023-05-10T03:48:23;6.05;;;5.60;;
5674;SDS011;2860;54.284;10.158;2023-05-10T03:50:49;5.65;;;5.35;;
5674;SDS011;2860;54.284;10.158;2023-05-10T03:53:14;5.63;;;5.32;;
5674;SDS011;2860;54.284;10.158;2023-05-10T03:55:40;5.60;;;5.30;;
5674;SDS011;2860;54.284;10.158;2023-05-10T03:58:06;5.28;;;4.93;;
5674;SDS011;2860;54.284;10.158;2023-05-10T04:00:32;5.35;;;4.93;;
5674;SDS011;2860;54.284;10.158;2023-05-10T04:02:57;6.05;;;5.53;;
5674;SDS011;2860;54.284;10.158;2023-05-10T04:05:23;5.32;;;5.03;;
5674;SDS011;2860;54.284;10.158;2023-05-10T04:07:49;5.63;;;5.22;;
5674;SDS011;2860;54.284;10.158;2023-05-10T04:10:15;9.88;;;5.57;;
5674;SDS011;2860;54.284;10.158;2023-05-10T04:12:41;5.78;;;5.47;;
5674;SDS011;2860;54.284;10.158;2023-05-10T04:15:07;5.80;;;5.40;;
5674;SDS011;2860;54.284;10.158;2023-05-10T04:17:33;5.97;;;5.47;;
5674;SDS011;2860;54.284;10.158;2023-05-10T04:19:59;6.60;;;5.75;;
5674;SDS011;2860;54.284;10.158;2023-05-10T04:22:24;8.20;;;5.97;;
5674;SDS011;2860;54.284;10.158;2023-05-10T04:24:50;5.97;;;5.30;;
5674;SDS011;2860;54.284;10.158;2023-05-10T04:27:15;5.18;;;4.97;;
5674;SDS011;2860;54.284;10.158;2023-05-10T04:29:41;9.85;;;5.57;;
5674;SDS011;2860;54.284;10.158;2023-05-10T04:32:06;5.38;;;4.95;;
5674;SDS011;2860;54.284;10.158;2023-05-10T04:34:32;6.07;;;5.50;;
5674;SDS011;2860;54.284;10.158;2023-05-10T04:36:59;5.88;;;5.38;;
5674;SDS011;2860;54.284;10.158;2023-05-10T04:39:24;8.98;;;5.63;;
5674;SDS011;2860;54.284;10.158;2023-05-10T04:41:50;5.43;;;5.15;;
5674;SDS011;2860;54.284;10.158;2023-05-10T04:44:15;7.15;;;5.90;;
5674;SDS011;2860;54.284;10.158;2023-05-10T04:46:41;5.90;;;5.40;;
5674;SDS011;2860;54.284;10.158;2023-05-10T04:49:06;5.60;;;5.20;;
5674;SDS011;2860;54.284;10.158;2023-05-10T04:51:32;8.15;;;5.72;;
5674;SDS011;2860;54.284;10.158;2023-05-10T04:53:57;8.10;;;6.30;;
5674;SDS011;2860;54.284;10.158;2023-05-10T04:56:23;6.00;;;5.50;;
5674;SDS011;2860;54.284;10.158;2023-05-10T04:58:48;6.13;;;5.70;;
5674;SDS011;2860;54.284;10.158;2023-05-10T05:01:14;11.02;;;6.90;;
5674;SDS011;2860;54.284;10.158;2023-05-10T05:03:40;7.10;;;5.95;;
5674;SDS011;2860;54.284;10.158;2023-05-10T05:06:06;7.75;;;5.97;;
5674;SDS011;2860;54.284;10.158;2023-05-10T05:08:31;6.07;;;5.55;;
5674;SDS011;2860;54.284;10.158;2023-05-10T05:10:57;5.93;;;5.47;;
5674;SDS011;2860;54.284;10.158;2023-05-10T05:13:22;5.78;;;5.35;;
5674;SDS011;2860;54.284;10.158;2023-05-10T05:15:48;8.23;;;6.40;;
5674;SDS011;2860;54.284;10.158;2023-05-10T05:18:14;6.43;;;5.80;;
5674;SDS011;2860;54.284;10.158;2023-05-10T05:20:39;6.00;;;5.68;;
5674;SDS011;2860;54.284;10.158;2023-05-10T05:23:05;6.38;;;5.75;;
5674;SDS011;2860;54.284;10.158;2023-05-10T05:25:30;5.43;;;5.03;;
5674;SDS011;2860;54.284;10.158;2023-05-10T05:27:56;6.75;;;5.18;;
5674;SDS011;2860;54.284;10.158;2023-05-10T05:30:21;6.38;;;5.85;;
5674;SDS011;2860;54.284;10.158;2023-05-10T05:32:47;6.35;;;6.05;;
5674;SDS011;2860;54.284;10.158;2023-05-10T05:35:13;5.90;;;5.35;;
5674;SDS011;2860;54.284;10.158;2023-05-10T05:37:38;5.30;;;4.80;;
5674;SDS011;2860;54.284;10.158;2023-05-10T05:40:04;5.82;;;5.32;;
5674;SDS011;2860;54.284;10.158;2023-05-10T05:42:30;5.60;;;5.18;;
5674;SDS011;2860;54.284;10.158;2023-05-10T05:44:56;5.85;;;5.38;;
5674;SDS011;2860;54.284;10.158;2023-05-10T05:47:22;6.53;;;6.03;;
5674;SDS011;2860;54.284;10.158;2023-05-10T05:49:47;7.03;;;5.07;;
5674;SDS011;2860;54.284;10.158;2023-05-10T05:52:13;5.25;;;4.97;;
5674;SDS011;2860;54.284;10.158;2023-05-10T05:54:38;5.85;;;5.45;;
5674;SDS011;2860;54.284;10.158;2023-05-10T05:57:04;5.45;;;5.07;;
5674;SDS011;2860;54.284;10.158;2023-05-10T05:59:30;11.68;;;5.57;;
5674;SDS011;2860;54.284;10.158;2023-05-10T06:01:55;5.63;;;5.20;;
5674;SDS011;2860;54.284;10.158;2023-05-10T06:04:21;6.30;;;5.07;;
5674;SDS011;2860;54.284;10.158;2023-05-10T06:06:47;5.22;;;4.90;;
5674;SDS011;2860;54.284;10.158;2023-05-10T06:09:12;10.48;;;5.53;;
5674;SDS011;2860;54.284;10.158;2023-05-10T06:11:38;7.53;;;5.50;;
5674;SDS011;2860;54.284;10.158;2023-05-10T06:14:04;7.05;;;5.32;;
5674;SDS011;2860;54.284;10.158;2023-05-10T06:16:30;5.63;;;5.30;;
5674;SDS011;2860;54.284;10.158;2023-05-10T06:18:56;7.53;;;6.82;;
5674;SDS011;2860;54.284;10.158;2023-05-10T06:21:21;6.45;;;5.82;;
5674;SDS011;2860;54.284;10.158;2023-05-10T06:23:47;5.70;;;5.20;;
5674;SDS011;2860;54.284;10.158;2023-05-10T06:26:12;6.50;;;5.80;;
5674;SDS011;2860;54.284;10.158;2023-05-10T06:28:38;5.25;;;4.95;;
5674;SDS011;2860;54.284;10.158;2023-05-10T06:31:04;5.53;;;5.25;;
5674;SDS011;2860;54.284;10.158;2023-05-10T06:33:30;7.65;;;5.82;;
5674;SDS011;2860;54.284;10.158;2023-05-10T06:35:56;5.30;;;5.10;;
5674;SDS011;2860;54.284;10.158;2023-05-10T06:38:22;6.38;;;5.90;;
5674;SDS011;2860;54.284;10.158;2023-05-10T06:40:47;6.05;;;5.45;;
5674;SDS011;2860;54.284;10.158;2023-05-10T06:43:13;5.88;;;5.47;;
5674;SDS011;2860;54.284;10.158;2023-05-10T06:45:39;5.90;;;5.60;;
5674;SDS011;2860;54.284;10.158;2023-05-10T06:48:05;6.25;;;5.75;;
5674;SDS011;2860;54.284;10.158;2023-05-10T06:50:31;7.20;;;4.80;;
5674;SDS011;2860;54.284;10.158;2023-05-10T06:52:57;5.90;;;5.60;;
5674;SDS011;2860;54.284;10.158;2023-05-10T06:55:22;5.40;;;5.15;;
5674;SDS011;2860;54.284;10.158;2023-05-10T06:57:48;5.38;;;4.97;;
5674;SDS011;2860;54.284;10.158;2023-05-10T07:00:14;6.68;;;6.15;;
5674;SDS011;2860;54.284;10.158;2023-05-10T07:02:39;7.20;;;6.30;;
5674;SDS011;2860;54.284;10.158;2023-05-10T07:05:05;5.97;;;5.63;;
5674;SDS011;2860;54.284;10.158;2023-05-10T07:07:31;7.57;;;6.53;;
5674;SDS011;2860;54.284;10.158;2023-05-10T07:09:57;6.10;;;5.80;;
5674;SDS011;2860;54.284;10.158;2023-05-10T07:12:23;5.68;;;5.40;;
5674;SDS011;2860;54.284;10.158;2023-05-10T07:14:49;6.32;;;5.93;;
5674;SDS011;2860;54.284;10.158;2023-05-10T07:17:14;6.90;;;6.30;;
5674;SDS011;2860;54.284;10.158;2023-05-10T07:19:40;7.18;;;6.65;;
5674;SDS011;2860;54.284;10.158;2023-05-10T07:22:05;6.45;;;6.05;;
5674;SDS011;2860;54.284;10.158;2023-05-10T07:24:31;8.55;;;6.13;;
5674;SDS011;2860;54.284;10.158;2023-05-10T07:26:58;5.80;;;5.28;;
5674;SDS011;2860;54.284;10.158;2023-05-10T07:29:23;6.40;;;6.00;;
5674;SDS011;2860;54.284;10.158;2023-05-10T07:31:48;6.68;;;6.07;;
5674;SDS011;2860;54.284;10.158;2023-05-10T07:34:14;5.60;;;5.20;;
5674;SDS011;2860;54.284;10.158;2023-05-10T07:36:40;5.93;;;5.63;;
5674;SDS011;2860;54.284;10.158;2023-05-10T07:39:05;6.13;;;5.93;;
5674;SDS011;2860;54.284;10.158;2023-05-10T07:41:30;5.80;;;5.60;;
5674;SDS011;2860;54.284;10.158;2023-05-10T07:43:56;5.72;;;5.28;;
5674;SDS011;2860;54.284;10.158;2023-05-10T07:46:22;5.20;;;5.00;;
5674;SDS011;2860;54.284;10.158;2023-05-10T07:48:47;5.05;;;4.70;;
5674;SDS011;2860;54.284;10.158;2023-05-10T07:51:13;5.45;;;5.25;;
5674;SDS011;2860;54.284;10.158;2023-05-10T07:53:38;5.15;;;4.95;;
5674;SDS011;2860;54.284;10.158;2023-05-10T07:58:50;5.82;;;5.30;;
5674;SDS011;2860;54.284;10.158;2023-05-10T08:01:16;4.75;;;4.38;;
5674;SDS011;2860;54.284;10.158;2023-05-10T08:03:41;5.65;;;5.10;;
5674;SDS011;2860;54.284;10.158;2023-05-10T08:06:07;5.45;;;5.05;;
5674;SDS011;2860;54.284;10.158;2023-05-10T08:08:32;6.00;;;5.70;;
5674;SDS011;2860;54.284;10.158;2023-05-10T08:10:58;5.18;;;4.85;;
5674;SDS011;2860;54.284;10.158;2023-05-10T08:13:23;10.65;;;4.90;;
5674;SDS011;2860;54.284;10.158;2023-05-10T08:15:49;6.00;;;5.18;;
5674;SDS011;2860;54.284;10.158;2023-05-10T08:18:17;4.90;;;4.80;;
5674;SDS011;2860;54.284;10.158;2023-05-10T08:20:43;6.00;;;5.47;;
5674;SDS011;2860;54.284;10.158;2023-05-10T08:23:08;5.25;;;4.85;;
5674;SDS011;2860;54.284;10.158;2023-05-10T08:25:34;6.05;;;5.55;;
5674;SDS011;2860;54.284;10.158;2023-05-10T08:27:59;5.63;;;4.80;;
5674;SDS011;2860;54.284;10.158;2023-05-10T08:30:25;3.90;;;3.80;;
5674;SDS011;2860;54.284;10.158;2023-05-10T08:32:50;5.22;;;5.03;;
5674;SDS011;2860;54.284;10.158;2023-05-10T08:35:16;5.70;;;5.50;;
5674;SDS011;2860;54.284;10.158;2023-05-10T08:37:41;5.53;;;5.22;;
5674;SDS011;2860;54.284;10.158;2023-05-10T08:40:07;7.65;;;4.93;;
5674;SDS011;2860;54.284;10.158;2023-05-10T08:42:36;5.20;;;5.00;;
5674;SDS011;2860;54.284;10.158;2023-05-10T08:45:05;5.88;;;5.43;;
5674;SDS011;2860;54.284;10.158;2023-05-10T08:47:32;4.97;;;4.78;;
5674;SDS011;2860;54.284;10.158;2023-05-10T08:50:00;6.20;;;5.85;;
5674;SDS011;2860;54.284;10.158;2023-05-10T08:52:27;5.15;;;4.82;;
5674;SDS011;2860;54.284;10.158;2023-05-10T08:54:55;5.25;;;4.75;;
5674;SDS011;2860;54.284;10.158;2023-05-10T08:57:21;6.20;;;4.72;;
5674;SDS011;2860;54.284;10.158;2023-05-10T08:59:47;6.70;;;5.15;;
5674;SDS011;2860;54.284;10.158;2023-05-10T09:02:12;5.85;;;5.28;;
5674;SDS011;2860;54.284;10.158;2023-05-10T09:04:38;5.57;;;5.20;;
5674;SDS011;2860;54.284;10.158;2023-05-10T09:07:04;5.70;;;5.22;;
5674;SDS011;2860;54.284;10.158;2023-05-10T09:09:31;4.85;;;4.75;;
5674;SDS011;2860;54.284;10.158;2023-05-10T09:11:57;5.07;;;4.65;;
5674;SDS011;2860;54.284;10.158;2023-05-10T09:14:23;5.57;;;5.22;;
5674;SDS011;2860;54.284;10.158;2023-05-10T09:16:50;4.68;;;4.57;;
5674;SDS011;2860;54.284;10.158;2023-05-10T09:19:15;5.43;;;5.22;;
5674;SDS011;2860;54.284;10.158;2023-05-10T09:21:41;5.55;;;5.25;;
5674;SDS011;2860;54.284;10.158;2023-05-10T09:24:07;4.93;;;4.63;;
5674;SDS011;2860;54.284;10.158;2023-05-10T09:26:34;5.07;;;4.90;;
5674;SDS011;2860;54.284;10.158;2023-05-10T09:29:00;5.57;;;5.20;;
5674;SDS011;2860;54.284;10.158;2023-05-10T09:32:00;5.85;;;5.65;;
5674;SDS011;2860;54.284;10.158;2023-05-10T09:34:21;5.25;;;5.10;;
5674;SDS011;2860;54.284;10.158;2023-05-10T09:36:55;5.90;;;5.65;;
5674;SDS011;2860;54.284;10.158;2023-05-10T09:39:38;5.63;;;4.72;;
5674;SDS011;2860;54.284;10.158;2023-05-10T09:42:07;5.15;;;5.05;;
5674;SDS011;2860;54.284;10.158;2023-05-10T09:44:34;9.38;;;6.03;;
5674;SDS011;2860;54.284;10.158;2023-05-10T09:47:00;5.53;;;5.15;;
5674;SDS011;2860;54.284;10.158;2023-05-10T09:49:26;5.22;;;4.90;;
5674;SDS011;2860;54.284;10.158;2023-05-10T09:52:05;5.30;;;5.00;;
5674;SDS011;2860;54.284;10.158;2023-05-10T09:54:32;4.88;;;4.40;;
5674;SDS011;2860;54.284;10.158;2023-05-10T09:56:58;5.55;;;5.00;;
5674;SDS011;2860;54.284;10.158;2023-05-10T09:59:25;5.50;;;5.03;;
5674;SDS011;2860;54.284;10.158;2023-05-10T10:01:58;5.95;;;5.68;;
5674;SDS011;2860;54.284;10.158;2023-05-10T10:04:25;6.35;;;5.82;;
5674;SDS011;2860;54.284;10.158;2023-05-10T10:07:03;5.18;;;4.97;;
5674;SDS011;2860;54.284;10.158;2023-05-10T10:09:29;6.30;;;5.43;;
5674;SDS011;2860;54.284;10.158;2023-05-10T10:11:56;5.43;;;4.80;;
5674;SDS011;2860;54.284;10.158;2023-05-10T10:14:22;6.32;;;5.97;;
5674;SDS011;2860;54.284;10.158;2023-05-10T10:16:49;6.20;;;5.80;;
5674;SDS011;2860;54.284;10.158;2023-05-10T10:19:16;5.10;;;4.97;;
5674;SDS011;2860;54.284;10.158;2023-05-10T10:21:45;4.85;;;4.70;;
5674;SDS011;2860;54.284;10.158;2023-05-10T10:24:12;5.60;;;5.13;;
5674;SDS011;2860;54.284;10.158;2023-05-10T10:26:37;4.60;;;4.50;;
5674;SDS011;2860;54.284;10.158;2023-05-10T10:29:10;8.35;;;5.07;;
5674;SDS011;2860;54.284;10.158;2023-05-10T10:34:22;4.32;;;4.13;;
5674;SDS011;2860;54.284;10.158;2023-05-10T10:36:54;4.97;;;4.78;;
5674;SDS011;2860;54.284;10.158;2023-05-10T10:39:21;5.70;;;5.18;;
5674;SDS011;2860;54.284;10.158;2023-05-10T10:41:51;5.47;;;5.07;;
5674;SDS011;2860;54.284;10.158;2023-05-10T10:47:03;5.30;;;4.88;;
5674;SDS011;2860;54.284;10.158;2023-05-10T10:49:49;5.03;;;4.72;;
5674;SDS011;2860;54.284;10.158;2023-05-10T10:52:37;4.82;;;4.50;;
5674;SDS011;2860;54.284;10.158;2023-05-10T10:55:27;5.22;;;4.85;;
5674;SDS011;2860;54.284;10.158;2023-05-10T10:57:55;5.20;;;5.07;;
5674;SDS011;2860;54.284;10.158;2023-05-10T11:00:33;5.55;;;5.25;;
5674;SDS011;2860;54.284;10.158;2023-05-10T11:03:11;5.25;;;5.15;;
5674;SDS011;2860;54.284;10.158;2023-05-10T11:05:44;5.30;;;5.10;;
5674;SDS011;2860;54.284;10.158;2023-05-10T11:08:11;5.18;;;4.82;;
5674;SDS011;2860;54.284;10.158;2023-05-10T11:10:48;4.80;;;4.60;;
5674;SDS011;2860;54.284;10.158;2023-05-10T11:13:44;4.97;;;4.78;;
5674;SDS011;2860;54.284;10.158;2023-05-10T11:18:57;5.28;;;4.97;;
5674;SDS011;2860;54.284;10.158;2023-05-10T11:21:32;5.47;;;5.18;;
5674;SDS011;2860;54.284;10.158;2023-05-10T11:23:59;5.20;;;4.88;;
5674;SDS011;2860;54.284;10.158;2023-05-10T11:26:29;5.82;;;5.45;;
5674;SDS011;2860;54.284;10.158;2023-05-10T11:28:56;5.55;;;5.13;;
5674;SDS011;2860;54.284;10.158;2023-05-10T11:31:29;5.30;;;5.20;;
5674;SDS011;2860;54.284;10.158;2023-05-10T11:34:22;5.43;;;5.22;;
5674;SDS011;2860;54.284;10.158;2023-05-10T11:36:53;5.68;;;5.15;;
5674;SDS011;2860;54.284;10.158;2023-05-10T11:39:20;5.57;;;5.22;;
5674;SDS011;2860;54.284;10.158;2023-05-10T11:41:48;8.43;;;5.35;;
5674;SDS011;2860;54.284;10.158;2023-05-10T11:44:14;7.25;;;6.60;;
5674;SDS011;2860;54.284;10.158;2023-05-10T11:46:40;6.95;;;6.35;;
5674;SDS011;2860;54.284;10.158;2023-05-10T11:49:06;5.80;;;5.40;;
5674;SDS011;2860;54.284;10.158;2023-05-10T11:51:33;6.10;;;5.80;;
5674;SDS011;2860;54.284;10.158;2023-05-10T11:54:01;7.20;;;6.75;;
5674;SDS011;2860;54.284;10.158;2023-05-10T11:56:34;5.72;;;5.32;;
5674;SDS011;2860;54.284;10.158;2023-05-10T11:59:01;17.15;;;5.82;;
5674;SDS011;2860;54.284;10.158;2023-05-10T12:01:27;5.82;;;5.40;;
5674;SDS011;2860;54.284;10.158;2023-05-10T12:03:54;5.90;;;5.50;;
5674;SDS011;2860;54.284;10.158;2023-05-10T12:06:25;5.95;;;5.50;;
5674;SDS011;2860;54.284;10.158;2023-05-10T12:08:52;5.40;;;5.18;;
5674;SDS011;2860;54.284;10.158;2023-05-10T12:11:18;6.57;;;6.25;;
5674;SDS011;2860;54.284;10.158;2023-05-10T12:13:45;6.47;;;6.00;;
5674;SDS011;2860;54.284;10.158;2023-05-10T12:16:12;5.50;;;5.10;;
5674;SDS011;2860;54.284;10.158;2023-05-10T12:18:39;6.05;;;5.60;;
5674;SDS011;2860;54.284;10.158;2023-05-10T12:21:07;5.72;;;5.20;;
5674;SDS011;2860;54.284;10.158;2023-05-10T12:23:35;6.18;;;5.88;;
5674;SDS011;2860;54.284;10.158;2023-05-10T12:26:02;6.07;;;5.47;;
5674;SDS011;2860;54.284;10.158;2023-05-10T12:28:29;6.55;;;6.07;;
5674;SDS011;2860;54.284;10.158;2023-05-10T12:30:56;7.07;;;6.40;;
5674;SDS011;2860;54.284;10.158;2023-05-10T12:33:23;7.35;;;6.93;;
5674;SDS011;2860;54.284;10.158;2023-05-10T12:35:50;8.27;;;7.57;;
5674;SDS011;2860;54.284;10.158;2023-05-10T12:38:32;9.57;;;8.43;;
5674;SDS011;2860;54.284;10.158;2023-05-10T12:41:02;10.20;;;9.20;;
5674;SDS011;2860;54.284;10.158;2023-05-10T12:43:29;11.80;;;10.65;;
5674;SDS011;2860;54.284;10.158;2023-05-10T12:45:55;10.40;;;9.70;;
5674;SDS011;2860;54.284;10.158;2023-05-10T12:48:21;11.15;;;10.23;;
5674;SDS011;2860;54.284;10.158;2023-05-10T12:50:47;11.23;;;10.52;;
5674;SDS011;2860;54.284;10.158;2023-05-10T12:53:13;13.18;;;11.63;;
5674;SDS011;2860;54.284;10.158;2023-05-10T12:55:40;12.43;;;11.30;;
5674;SDS011;2860;54.284;10.158;2023-05-10T12:58:06;10.85;;;10.15;;
5674;SDS011;2860;54.284;10.158;2023-05-10T13:00:32;13.70;;;12.52;;
5674;SDS011;2860;54.284;10.158;2023-05-10T13:02:57;11.88;;;11.00;;
5674;SDS011;2860;54.284;10.158;2023-05-10T13:05:23;12.88;;;11.63;;
5674;SDS011;2860;54.284;10.158;2023-05-10T13:07:48;13.15;;;12.15;;
5674;SDS011;2860;54.284;10.158;2023-05-10T13:10:14;14.93;;;12.70;;
5674;SDS011;2860;54.284;10.158;2023-05-10T13:12:40;13.13;;;12.05;;
5674;SDS011;2860;54.284;10.158;2023-05-10T13:15:05;14.90;;;13.63;;
5674;SDS011;2860;54.284;10.158;2023-05-10T13:17:31;14.70;;;13.60;;
5674;SDS011;2860;54.284;10.158;2023-05-10T13:19:57;14.77;;;13.60;;
5674;SDS011;2860;54.284;10.158;2023-05-10T13:22:22;13.45;;;12.25;;
5674;SDS011;2860;54.284;10.158;2023-05-10T13:24:48;14.30;;;13.27;;
5674;SDS011;2860;54.284;10.158;2023-05-10T13:27:13;13.32;;;12.18;;
5674;SDS011;2860;54.284;10.158;2023-05-10T13:29:39;12.88;;;11.82;;
5674;SDS011;2860;54.284;10.158;2023-05-10T13:32:04;13.50;;;12.57;;
5674;SDS011;2860;54.284;10.158;2023-05-10T13:34:30;12.73;;;11.75;;
5674;SDS011;2860;54.284;10.158;2023-05-10T13:36:55;12.77;;;11.52;;
5674;SDS011;2860;54.284;10.158;2023-05-10T13:39:21;13.02;;;11.93;;
5674;SDS011;2860;54.284;10.158;2023-05-10T13:41:47;15.57;;;12.18;;
5674;SDS011;2860;54.284;10.158;2023-05-10T13:44:13;13.20;;;11.95;;
5674;SDS011;2860;54.284;10.158;2023-05-10T13:46:40;13.00;;;11.90;;
5674;SDS011;2860;54.284;10.158;2023-05-10T13:49:07;13.23;;;12.18;;
5674;SDS011;2860;54.284;10.158;2023-05-10T13:51:34;13.93;;;12.68;;
5674;SDS011;2860;54.284;10.158;2023-05-10T13:54:00;13.85;;;12.52;;
5674;SDS011;2860;54.284;10.158;2023-05-10T13:56:26;14.40;;;13.00;;
5674;SDS011;2860;54.284;10.158;2023-05-10T13:58:52;13.05;;;12.15;;
5674;SDS011;2860;54.284;10.158;2023-05-10T14:01:17;13.13;;;11.98;;
5674;SDS011;2860;54.284;10.158;2023-05-10T14:03:43;12.43;;;11.43;;
5674;SDS011;2860;54.284;10.158;2023-05-10T14:06:08;14.43;;;13.05;;
5674;SDS011;2860;54.284;10.158;2023-05-10T14:08:34;12.55;;;11.55;;
5674;SDS011;2860;54.284;10.158;2023-05-10T14:11:00;12.95;;;11.80;;
5674;SDS011;2860;54.284;10.158;2023-05-10T14:13:26;13.90;;;12.75;;
5674;SDS011;2860;54.284;10.158;2023-05-10T14:15:52;14.52;;;13.45;;
5674;SDS011;2860;54.284;10.158;2023-05-10T14:18:18;13.23;;;12.18;;
5674;SDS011;2860;54.284;10.158;2023-05-10T14:20:44;13.77;;;12.85;;
5674;SDS011;2860;54.284;10.158;2023-05-10T14:23:10;13.50;;;12.50;;
5674;SDS011;2860;54.284;10.158;2023-05-10T14:25:35;12.80;;;11.75;;
5674;SDS011;2860;54.284;10.158;2023-05-10T14:28:02;13.05;;;11.85;;
5674;SDS011;2860;54.284;10.158;2023-05-10T14:30:28;13.50;;;12.07;;
5674;SDS011;2860;54.284;10.158;2023-05-10T14:32:53;11.90;;;11.00;;
5674;SDS011;2860;54.284;10.158;2023-05-10T14:35:19;12.02;;;11.07;;
5674;SDS011;2860;54.284;10.158;2023-05-10T14:37:44;10.65;;;9.82;;
5674;SDS011;2860;54.284;10.158;2023-05-10T14:40:10;11.85;;;11.05;;
5674;SDS011;2860;54.284;10.158;2023-05-10T14:42:36;10.98;;;9.95;;
5674;SDS011;2860;54.284;10.158;2023-05-10T14:45:02;11.55;;;10.57;;
5674;SDS011;2860;54.284;10.158;2023-05-10T14:47:28;10.13;;;9.43;;
5674;SDS011;2860;54.284;10.158;2023-05-10T14:49:54;10.05;;;9.45;;
5674;SDS011;2860;54.284;10.158;2023-05-10T14:52:19;10.43;;;9.63;;
5674;SDS011;2860;54.284;10.158;2023-05-10T14:54:45;8.88;;;8.38;;
5674;SDS011;2860;54.284;10.158;2023-05-10T14:57:11;8.05;;;7.60;;
5674;SDS011;2860;54.284;10.158;2023-05-10T14:59:36;7.95;;;7.60;;
5674;SDS011;2860;54.284;10.158;2023-05-10T15:02:02;8.52;;;7.65;;
5674;SDS011;2860;54.284;10.158;2023-05-10T15:04:29;6.32;;;6.03;;
5674;SDS011;2860;54.284;10.158;2023-05-10T15:06:54;5.55;;;5.10;;
5674;SDS011;2860;54.284;10.158;2023-05-10T15:09:24;5.78;;;5.50;;
5674;SDS011;2860;54.284;10.158;2023-05-10T15:11:49;6.00;;;5.60;;
5674;SDS011;2860;54.284;10.158;2023-05-10T15:14:15;5.80;;;5.60;;
5674;SDS011;2860;54.284;10.158;2023-05-10T15:16:40;5.03;;;4.82;;
5674;SDS011;2860;54.284;10.158;2023-05-10T15:19:06;5.88;;;5.68;;
5674;SDS011;2860;54.284;10.158;2023-05-10T15:21:32;7.18;;;6.63;;